KJCT/JCT METAR and TAF weather

Enter ICAO airport designator
Station Type Date Time Source
KJCT METAR 2021/06/24 04:51 UTC NOAA

KJCT 240451Z AUTO 17010G19KT 9SM CLR 28/22 A3000 RMK AO2 SLP119 T02830217


Station Type Date Time Source
KJCT Decoded METAR 2021/06/24 04:51 UTC NOAA

KIMBLE COUNTY AIRPORT, TX, United States (KJCT) 30-31N 099-46W 523M
Jun 24, 2021 - 12:51 AM EDT / 2021.06.24 0451 UTC
Wind: from the S (170 degrees) at 12 MPH (10 KT) gusting to 22 MPH (19 KT):0
Visibility: 9 mile(s):0
Sky conditions: clear
Temperature: 82.9 F (28.3 C)
Dew Point: 71.1 F (21.7 C)
Relative Humidity: 67%
Pressure (altimeter): 30 in. Hg (1015 hPa)
ob: KJCT 240451Z AUTO 17010G19KT 9SM CLR 28/22 A3000 RMK AO2 SLP119 T02830217
cycle: 5

Station Type Date Time Source
KJCT TAF 2021/06/24 06:22 UTC NOAA

TAF KJCT 240520Z 2406/2506 17009KT P6SM SKC
FM240900 17005KT P6SM BKN015
FM241500 18014G20KT P6SM FEW250
FM250100 16011KT P6SM SKC

Example: see airport list